createdAt,value
2022-08-12T00:00:05.619Z,36.81
2022-08-12T00:00:36.536Z,37.16
2022-08-12T00:01:06.795Z,37.18
2022-08-12T00:02:02.906Z,36.98
2022-08-12T00:02:28.363Z,36.23
2022-08-12T00:02:59.116Z,36.73
2022-08-12T00:03:29.957Z,37.80
2022-08-12T00:04:00.813Z,37.09
2022-08-12T00:04:33.088Z,36.86
2022-08-12T00:05:06.333Z,36.54
2022-08-12T00:05:39.111Z,36.71
2022-08-12T00:06:30.307Z,37.58
2022-08-12T00:07:01.125Z,37.11
2022-08-12T00:07:31.979Z,37.01
2022-08-12T00:08:02.854Z,37.13
2022-08-12T00:08:36.957Z,36.79
2022-08-12T00:09:09.557Z,37.02
2022-08-12T00:09:40.388Z,36.88
2022-08-12T00:10:11.690Z,37.09
2022-08-12T00:10:43.100Z,37.01
2022-08-12T00:11:14.024Z,36.24
2022-08-12T00:11:45.842Z,36.36
2022-08-12T00:12:16.094Z,36.70
2022-08-12T00:12:46.376Z,36.75
2022-08-12T00:13:16.760Z,36.98
2022-08-12T00:13:47.035Z,37.51
2022-08-12T00:14:17.988Z,36.62
2022-08-12T00:14:48.332Z,36.19
2022-08-12T00:15:18.643Z,36.80
2022-08-12T00:15:50.533Z,36.32
2022-08-12T00:16:21.774Z,37.25
2022-08-12T00:16:52.678Z,37.07
2022-08-12T00:17:24.105Z,37.11
2022-08-12T00:17:54.956Z,36.89
2022-08-12T00:18:25.838Z,36.79
2022-08-12T00:18:57.345Z,36.81
2022-08-12T00:19:27.751Z,37.08
2022-08-12T00:19:58.523Z,36.36
2022-08-12T00:20:29.720Z,36.94
2022-08-12T00:21:00.816Z,36.56
2022-08-12T00:21:33.132Z,36.71
2022-08-12T00:22:06.776Z,36.76
2022-08-12T00:22:39.234Z,36.32
2022-08-12T00:23:10.306Z,36.41
2022-08-12T00:23:40.999Z,35.82
2022-08-12T00:24:11.907Z,35.95
2022-08-12T00:24:45.177Z,35.88
2022-08-12T00:25:18.033Z,35.69
2022-08-12T00:26:20.903Z,35.37
2022-08-12T00:26:50.401Z,35.79
2022-08-12T00:27:20.831Z,35.80
2022-08-12T00:27:51.688Z,35.64
2022-08-12T00:28:24.524Z,35.52
2022-08-12T00:28:55.565Z,35.64
2022-08-12T00:29:26.512Z,35.14
2022-08-12T00:29:57.302Z,35.45
2022-08-12T00:30:29.119Z,35.38
2022-08-12T00:31:00.650Z,35.51
2022-08-12T00:31:32.549Z,35.33
2022-08-12T00:32:03.321Z,35.35
2022-08-12T00:32:36.699Z,34.53
2022-08-12T00:33:09.940Z,34.56
2022-08-12T00:33:51.763Z,34.86
2022-08-12T00:34:23.163Z,34.94
2022-08-12T00:34:54.115Z,34.58
2022-08-12T00:35:26.769Z,35.00
2022-08-12T00:36:32.339Z,34.90
2022-08-12T00:37:14.240Z,34.92
2022-08-12T00:37:44.738Z,34.81
2022-08-12T00:38:16.248Z,34.64
2022-08-12T00:38:47.662Z,34.76
2022-08-12T00:39:18.752Z,34.75
2022-08-12T00:39:49.761Z,34.92
2022-08-12T00:40:23.276Z,35.19
2022-08-12T00:40:56.667Z,34.94
2022-08-12T00:41:27.952Z,35.00
2022-08-12T00:41:59.879Z,34.51
2022-08-12T00:42:12.658Z,34.83
2022-08-12T00:42:26.007Z,34.40
2022-08-12T00:42:40.385Z,35.00
2022-08-12T00:42:53.113Z,34.75
2022-08-12T00:43:09.707Z,34.75
2022-08-12T00:43:24.253Z,34.61
2022-08-12T00:43:36.818Z,34.79
2022-08-12T00:43:48.812Z,34.52
2022-08-12T00:44:03.383Z,34.84
2022-08-12T00:44:16.422Z,34.80
2022-08-12T00:44:28.404Z,35.41
2022-08-12T00:44:44.793Z,34.50
2022-08-12T00:44:56.761Z,34.47
2022-08-12T00:45:09.855Z,34.31
2022-08-12T00:45:22.397Z,34.22
2022-08-12T00:45:54.572Z,34.55
2022-08-12T00:46:24.785Z,34.82
2022-08-12T00:46:50.716Z,35.30
2022-08-12T00:47:03.107Z,35.01
2022-08-12T00:47:25.400Z,34.60
2022-08-12T00:47:38.518Z,34.78
2022-08-12T00:47:52.734Z,34.78
2022-08-12T00:48:05.085Z,34.96
2022-08-12T00:48:17.198Z,35.01
2022-08-12T00:48:29.458Z,35.17
2022-08-12T00:48:42.613Z,35.46
2022-08-12T00:48:56.622Z,35.57
2022-08-12T00:49:08.762Z,35.54
2022-08-12T00:49:23.475Z,35.22
2022-08-12T00:49:36.636Z,35.05
2022-08-12T00:49:51.678Z,35.05
2022-08-12T00:50:04.556Z,34.76
2022-08-12T00:50:19.910Z,35.21
2022-08-12T00:50:32.153Z,35.71
2022-08-12T00:50:47.670Z,35.25
2022-08-12T00:51:03.050Z,35.20
2022-08-12T00:51:16.371Z,35.56
2022-08-12T00:51:49.329Z,35.19
2022-08-12T00:52:06.424Z,35.27
2022-08-12T00:52:19.772Z,35.34
2022-08-12T00:52:34.311Z,35.76
2022-08-12T00:52:48.399Z,35.65
2022-08-12T00:53:02.054Z,35.79
2022-08-12T00:53:15.095Z,35.85
2022-08-12T00:53:31.643Z,35.73
2022-08-12T00:53:43.835Z,35.78
2022-08-12T00:53:55.788Z,34.77
2022-08-12T00:54:07.847Z,34.45
2022-08-12T00:54:20.168Z,35.20
2022-08-12T00:54:52.847Z,34.86
2022-08-12T00:55:05.478Z,35.12
2022-08-12T00:55:19.518Z,35.56
2022-08-12T00:55:31.852Z,35.46
2022-08-12T00:55:46.373Z,35.37
2022-08-12T00:55:59.935Z,35.73
2022-08-12T00:56:12.702Z,35.73
2022-08-12T00:56:28.547Z,35.56
2022-08-12T00:56:41.660Z,35.58
2022-08-12T00:56:54.719Z,35.55
2022-08-12T00:57:10.444Z,35.35
2022-08-12T00:57:23.781Z,35.42
2022-08-12T00:57:36.943Z,35.60
2022-08-12T00:57:50.620Z,36.04
2022-08-12T00:58:05.494Z,35.66
2022-08-12T00:58:23.491Z,35.64
2022-08-12T00:58:35.752Z,35.99
2022-08-12T00:58:50.861Z,35.94
2022-08-12T00:59:04.055Z,34.91
2022-08-12T00:59:16.432Z,35.22
2022-08-12T00:59:28.350Z,35.49
2022-08-12T00:59:50.570Z,35.70
2022-08-12T01:00:12.811Z,35.62
2022-08-12T01:00:25.290Z,35.35
2022-08-12T01:00:42.296Z,35.06
2022-08-12T01:01:01.730Z,35.49
2022-08-12T01:01:15.448Z,35.73
2022-08-12T01:01:28.333Z,35.58
2022-08-12T01:02:12.029Z,35.95
2022-08-12T01:02:31.980Z,35.60
2022-08-12T01:02:48.449Z,35.53
2022-08-12T01:03:03.021Z,35.83
2022-08-12T01:03:19.903Z,35.70
2022-08-12T01:03:55.709Z,35.61
2022-08-12T01:04:32.211Z,35.54
2022-08-12T01:05:05.467Z,35.10
2022-08-12T01:05:39.947Z,35.54
2022-08-12T01:06:13.666Z,35.56
2022-08-12T01:06:46.346Z,36.23
2022-08-12T01:07:23.688Z,36.31
2022-08-12T01:07:56.887Z,36.20
2022-08-12T01:08:47.890Z,36.17
2022-08-12T01:09:18.704Z,36.34
2022-08-12T01:09:49.581Z,37.13
2022-08-12T01:10:29.685Z,36.49
2022-08-12T01:11:05.618Z,36.80
2022-08-12T01:11:32.102Z,36.19
2022-08-12T01:11:44.137Z,36.53
2022-08-12T01:11:58.159Z,36.29
2022-08-12T01:12:12.120Z,37.02
2022-08-12T01:12:25.791Z,36.24
2022-08-12T01:12:38.917Z,36.31
2022-08-12T01:12:51.725Z,35.96
2022-08-12T01:13:18.754Z,36.33
2022-08-12T01:13:36.031Z,36.42
2022-08-12T01:13:50.212Z,36.34
2022-08-12T01:14:02.977Z,36.48
2022-08-12T01:14:15.122Z,37.09
2022-08-12T01:14:28.808Z,36.49
2022-08-12T01:14:43.740Z,36.77
2022-08-12T01:14:57.670Z,36.54
2022-08-12T01:15:13.341Z,36.36
2022-08-12T01:15:26.158Z,36.65
2022-08-12T01:15:38.909Z,36.57
2022-08-12T01:15:54.659Z,36.16
2022-08-12T01:16:08.337Z,36.04
2022-08-12T01:16:24.088Z,36.44
2022-08-12T01:16:36.327Z,36.53
2022-08-12T01:16:48.606Z,36.76
2022-08-12T01:17:02.018Z,36.79
2022-08-12T01:17:14.392Z,36.62
2022-08-12T01:17:26.394Z,37.24
2022-08-12T01:17:43.479Z,36.96
2022-08-12T01:17:55.803Z,37.01
2022-08-12T01:18:08.238Z,37.00
2022-08-12T01:18:22.575Z,37.21
2022-08-12T01:18:39.669Z,37.15
2022-08-12T01:18:54.314Z,37.35
2022-08-12T01:19:07.924Z,37.69
2022-08-12T01:19:22.130Z,37.59
2022-08-12T01:19:34.466Z,37.47
2022-08-12T01:19:48.586Z,37.41
2022-08-12T01:20:04.616Z,36.97
2022-08-12T01:20:37.026Z,36.52
2022-08-12T01:21:09.176Z,36.48
2022-08-12T01:21:26.995Z,36.68
2022-08-12T01:22:03.446Z,37.52
2022-08-12T01:22:34.315Z,36.82
2022-08-12T01:23:26.886Z,37.18
2022-08-12T01:24:29.942Z,37.33
2022-08-12T01:24:49.816Z,37.24
2022-08-12T01:25:04.830Z,37.27
2022-08-12T01:25:21.918Z,37.53
2022-08-12T01:25:55.521Z,36.88
2022-08-12T01:26:10.844Z,36.95
2022-08-12T01:26:24.597Z,37.00
2022-08-12T01:26:39.963Z,36.88
2022-08-12T01:26:54.862Z,36.63
2022-08-12T01:27:09.766Z,36.78
2022-08-12T01:27:24.078Z,36.67
2022-08-12T01:27:39.098Z,37.15
2022-08-12T01:27:53.049Z,37.86
2022-08-12T01:28:08.666Z,37.33
2022-08-12T01:28:21.212Z,37.05
2022-08-12T01:28:35.596Z,36.96
2022-08-12T01:28:50.302Z,36.92
2022-08-12T01:29:06.888Z,37.28
2022-08-12T01:29:26.718Z,37.59
2022-08-12T01:29:44.806Z,37.19
2022-08-12T01:29:58.101Z,37.07
2022-08-12T01:30:13.126Z,37.19
2022-08-12T01:30:26.312Z,37.13
2022-08-12T01:30:41.012Z,36.85
2022-08-12T01:30:54.200Z,37.02
2022-08-12T01:31:06.449Z,37.42
2022-08-12T01:31:20.571Z,37.15
2022-08-12T01:31:37.546Z,37.30
2022-08-12T01:31:51.810Z,37.14
2022-08-12T01:32:08.575Z,37.57
2022-08-12T01:32:23.644Z,37.79
2022-08-12T01:32:39.025Z,37.26
2022-08-12T01:32:53.687Z,38.05
2022-08-12T01:33:07.070Z,37.76
2022-08-12T01:33:21.848Z,37.56
2022-08-12T01:33:43.969Z,37.73
2022-08-12T01:34:28.400Z,38.21
2022-08-12T01:34:41.626Z,38.23
2022-08-12T01:34:59.580Z,37.77
2022-08-12T01:35:15.765Z,37.90
2022-08-12T01:35:32.920Z,38.23
2022-08-12T01:36:07.773Z,39.66
2022-08-12T01:36:22.981Z,38.78
2022-08-12T01:36:46.766Z,38.94
2022-08-12T01:37:02.165Z,38.69
2022-08-12T01:37:16.319Z,38.31
2022-08-12T01:37:30.956Z,37.78
2022-08-12T01:37:55.182Z,37.52
2022-08-12T01:38:11.063Z,38.38
2022-08-12T01:38:30.065Z,38.73
2022-08-12T01:38:48.037Z,38.33
2022-08-12T01:39:01.823Z,38.78
2022-08-12T01:39:18.170Z,38.63
2022-08-12T01:40:33.432Z,37.83
2022-08-12T01:40:35.377Z,38.78
2022-08-12T01:40:48.614Z,38.13
2022-08-12T01:41:02.445Z,38.42
2022-08-12T01:41:18.063Z,38.81
2022-08-12T01:41:33.244Z,38.87
2022-08-12T01:41:53.776Z,38.26
2022-08-12T01:42:09.418Z,38.77
2022-08-12T01:42:22.657Z,39.18
2022-08-12T01:42:44.659Z,38.87
2022-08-12T01:43:00.124Z,38.79
2022-08-12T01:43:21.130Z,38.93
2022-08-12T01:43:34.133Z,38.93
2022-08-12T01:43:47.134Z,38.42
2022-08-12T01:44:01.043Z,38.61
2022-08-12T01:44:14.270Z,38.38
2022-08-12T01:44:33.937Z,38.88
2022-08-12T01:44:47.331Z,38.33
2022-08-12T01:45:00.908Z,38.43
2022-08-12T01:45:13.655Z,38.92
2022-08-12T01:45:29.449Z,39.04
2022-08-12T01:46:19.398Z,38.75
2022-08-12T01:46:59.892Z,39.27
2022-08-12T01:47:42.919Z,39.64
2022-08-12T01:48:05.397Z,39.21
2022-08-12T01:48:39.628Z,39.75
2022-08-12T01:49:02.830Z,39.32
2022-08-12T01:49:21.633Z,40.23
2022-08-12T01:49:52.408Z,39.17
2022-08-12T01:50:31.926Z,39.67
2022-08-12T01:52:14.831Z,39.10
2022-08-12T01:52:15.895Z,39.05
2022-08-12T01:52:44.704Z,39.19
2022-08-12T01:53:11.227Z,39.03
2022-08-12T01:53:31.903Z,39.36
2022-08-12T01:54:06.251Z,39.13
2022-08-12T01:54:19.597Z,38.89
2022-08-12T01:54:41.763Z,38.95
2022-08-12T01:54:54.161Z,38.45
2022-08-12T01:55:07.268Z,38.50
2022-08-12T01:55:24.653Z,38.59
2022-08-12T01:55:42.927Z,39.01
2022-08-12T01:55:56.535Z,38.98
2022-08-12T01:56:11.334Z,39.16
2022-08-12T01:56:25.988Z,39.09
2022-08-12T01:57:05.426Z,39.48
2022-08-12T01:57:59.236Z,39.22
2022-08-12T01:58:16.283Z,40.26
2022-08-12T01:59:07.431Z,39.31
2022-08-12T02:00:06.681Z,39.21
2022-08-12T02:00:19.761Z,38.97
2022-08-12T02:00:55.568Z,39.09
2022-08-12T02:01:12.334Z,38.83
2022-08-12T02:01:30.519Z,38.96
2022-08-12T02:01:45.569Z,39.04
2022-08-12T02:01:59.951Z,38.96
2022-08-12T02:02:16.891Z,39.06
2022-08-12T02:02:47.420Z,38.66
2022-08-12T02:03:19.656Z,38.41
2022-08-12T02:03:52.940Z,38.57
2022-08-12T02:05:02.068Z,38.74
2022-08-12T02:06:03.866Z,38.71
2022-08-12T02:06:44.358Z,39.91
2022-08-12T02:07:26.565Z,38.99
2022-08-12T02:08:09.707Z,39.01
2022-08-12T02:08:52.395Z,38.52
2022-08-12T02:09:24.185Z,38.59
2022-08-12T02:10:50.875Z,39.62
2022-08-12T02:11:22.764Z,39.30
2022-08-12T02:11:56.855Z,38.82
2022-08-12T02:12:27.625Z,38.73
2022-08-12T02:13:03.165Z,38.83
2022-08-12T02:13:48.543Z,38.86
2022-08-12T02:14:46.999Z,38.35
2022-08-12T02:15:27.495Z,38.71
2022-08-12T02:15:49.543Z,38.70
2022-08-12T02:16:14.005Z,39.11
2022-08-12T02:16:51.031Z,38.48
2022-08-12T02:17:55.598Z,38.48
2022-08-12T02:18:59.738Z,38.80
2022-08-12T02:19:32.149Z,39.08
2022-08-12T02:19:59.332Z,39.04
2022-08-12T02:20:51.377Z,38.78
2022-08-12T02:21:15.530Z,38.63
2022-08-12T02:21:51.547Z,39.44
2022-08-12T02:22:22.114Z,39.53
2022-08-12T02:22:39.277Z,39.40
2022-08-12T02:22:52.957Z,39.29
2022-08-12T02:23:07.207Z,39.25
2022-08-12T02:23:23.215Z,39.54
2022-08-12T02:23:36.724Z,39.61
2022-08-12T02:23:49.227Z,39.77
2022-08-12T02:24:03.597Z,40.19
2022-08-12T02:24:19.822Z,39.98
2022-08-12T02:24:34.094Z,39.81
2022-08-12T02:24:46.666Z,39.45
2022-08-12T02:25:21.592Z,39.75
2022-08-12T02:25:37.944Z,39.50
2022-08-12T02:25:54.087Z,39.74
2022-08-12T02:26:08.814Z,39.62
2022-08-12T02:26:22.816Z,39.63
2022-08-12T02:26:39.423Z,40.06
2022-08-12T02:26:54.144Z,39.72
2022-08-12T02:27:11.614Z,39.81
2022-08-12T02:27:27.537Z,40.32
2022-08-12T02:27:45.985Z,40.63
2022-08-12T02:27:58.007Z,40.81
2022-08-12T02:28:11.314Z,40.39
2022-08-12T02:28:24.265Z,40.20
2022-08-12T02:28:39.406Z,40.24
2022-08-12T02:28:52.249Z,40.82
2022-08-12T02:29:04.532Z,40.54
2022-08-12T02:29:16.705Z,40.64
2022-08-12T02:29:29.570Z,40.37
2022-08-12T02:29:41.855Z,39.82
2022-08-12T02:29:53.925Z,39.65
2022-08-12T02:30:11.125Z,39.33
2022-08-12T02:30:26.763Z,39.87
2022-08-12T02:30:54.957Z,40.14
2022-08-12T02:31:09.202Z,40.28
2022-08-12T02:31:24.670Z,40.13
2022-08-12T02:31:37.384Z,40.15
2022-08-12T02:31:49.978Z,40.01
2022-08-12T02:32:04.534Z,39.87
2022-08-12T02:32:17.220Z,39.75
2022-08-12T02:32:30.415Z,39.65
2022-08-12T02:32:45.995Z,40.01
2022-08-12T02:33:02.242Z,40.15
2022-08-12T02:33:18.533Z,39.74
2022-08-12T02:33:32.687Z,39.67
2022-08-12T02:33:47.492Z,40.21
2022-08-12T02:33:59.821Z,39.89
2022-08-12T02:34:14.689Z,39.98
2022-08-12T02:34:28.325Z,40.05
2022-08-12T02:34:40.357Z,40.03
2022-08-12T02:34:52.637Z,39.96
2022-08-12T02:35:07.655Z,39.74
2022-08-12T02:35:22.901Z,39.82
2022-08-12T02:35:36.812Z,40.29
2022-08-12T02:35:51.440Z,40.36
2022-08-12T02:36:05.509Z,41.08
2022-08-12T02:36:18.151Z,40.39
2022-08-12T02:36:34.303Z,39.98
2022-08-12T02:36:47.880Z,39.96
2022-08-12T02:37:02.657Z,40.10
2022-08-12T02:37:18.287Z,40.03
2022-08-12T02:37:31.383Z,40.26
2022-08-12T02:37:45.379Z,40.20
2022-08-12T02:38:01.898Z,40.18
2022-08-12T02:38:13.924Z,40.37
2022-08-12T02:38:27.688Z,40.32
2022-08-12T02:38:42.722Z,40.47
2022-08-12T02:38:55.998Z,39.96
2022-08-12T02:39:09.983Z,40.35
2022-08-12T02:39:24.653Z,40.06
2022-08-12T02:39:40.677Z,41.05
2022-08-12T02:39:56.466Z,40.18
2022-08-12T02:40:12.182Z,39.68
2022-08-12T02:40:27.279Z,39.91
2022-08-12T02:40:42.989Z,40.43
2022-08-12T02:40:57.438Z,40.22
2022-08-12T02:41:12.160Z,40.54
2022-08-12T02:41:25.996Z,40.72
2022-08-12T02:41:43.540Z,40.66
2022-08-12T02:42:00.338Z,40.04
2022-08-12T02:42:15.211Z,39.62
2022-08-12T02:42:32.799Z,39.78
2022-08-12T02:43:12.128Z,39.78
2022-08-12T02:43:23.993Z,40.19
2022-08-12T02:43:41.518Z,40.13
2022-08-12T02:44:07.484Z,39.99
2022-08-12T02:44:23.735Z,39.92
2022-08-12T02:44:40.242Z,39.58
2022-08-12T02:44:55.522Z,39.87
2022-08-12T02:45:09.059Z,39.95
2022-08-12T02:45:41.828Z,39.82
2022-08-12T02:46:15.687Z,40.22
2022-08-12T02:46:32.463Z,40.41
2022-08-12T02:46:49.535Z,40.92
2022-08-12T02:47:05.871Z,40.36
2022-08-12T02:47:58.155Z,40.43
2022-08-12T02:48:00.914Z,40.65
2022-08-12T02:48:17.832Z,41.05
2022-08-12T02:48:44.129Z,40.52
2022-08-12T02:49:11.790Z,40.49
2022-08-12T02:49:31.244Z,40.34
2022-08-12T02:49:48.623Z,40.27
2022-08-12T02:50:03.418Z,40.49
2022-08-12T02:50:17.757Z,41.11
2022-08-12T02:50:33.943Z,40.89
2022-08-12T02:50:51.569Z,40.44
2022-08-12T02:51:09.706Z,40.42
2022-08-12T02:51:30.640Z,40.86
2022-08-12T02:51:46.160Z,40.62
2022-08-12T02:52:00.233Z,40.41
2022-08-12T02:52:14.544Z,40.49
2022-08-12T02:52:27.477Z,40.67
2022-08-12T02:52:40.264Z,40.49
2022-08-12T02:52:53.172Z,40.51
2022-08-12T02:53:05.748Z,40.66
2022-08-12T02:53:18.583Z,40.37
2022-08-12T02:53:32.248Z,39.79
2022-08-12T02:53:45.074Z,39.80
2022-08-12T02:54:13.548Z,40.03
2022-08-12T02:54:26.335Z,40.25
2022-08-12T02:54:40.905Z,40.01
2022-08-12T02:54:59.915Z,40.09
2022-08-12T02:55:28.854Z,40.33
2022-08-12T02:55:46.812Z,40.24
2022-08-12T02:56:02.954Z,40.07
2022-08-12T02:56:17.564Z,40.16
2022-08-12T02:56:30.877Z,39.86
2022-08-12T02:56:50.403Z,40.19
2022-08-12T02:57:03.015Z,40.55
2022-08-12T02:57:16.798Z,40.03
2022-08-12T02:57:31.956Z,40.05
2022-08-12T02:57:44.539Z,40.19
2022-08-12T02:57:58.557Z,39.78
2022-08-12T02:58:14.790Z,39.70
2022-08-12T02:58:33.311Z,40.11
2022-08-12T02:58:46.491Z,39.96
2022-08-12T02:59:00.301Z,39.97
2022-08-12T02:59:16.760Z,40.39
2022-08-12T02:59:30.559Z,40.48
2022-08-12T02:59:43.427Z,40.31
2022-08-12T02:59:56.172Z,39.93
2022-08-12T03:00:09.009Z,39.92
2022-08-12T03:00:21.342Z,39.98
2022-08-12T03:00:33.912Z,39.83
2022-08-12T03:00:46.835Z,39.51
2022-08-12T03:01:01.251Z,40.07
2022-08-12T03:01:14.380Z,39.62
2022-08-12T03:01:34.040Z,39.64
2022-08-12T03:01:55.918Z,40.30
2022-08-12T03:02:12.891Z,40.09
2022-08-12T03:02:28.587Z,39.73
2022-08-12T03:02:45.129Z,40.07
2022-08-12T03:03:04.602Z,40.17
2022-08-12T03:03:19.562Z,39.89
2022-08-12T03:03:33.818Z,39.84
2022-08-12T03:03:46.768Z,39.84
2022-08-12T03:04:00.958Z,40.82
2022-08-12T03:04:22.565Z,40.44
2022-08-12T03:04:47.663Z,40.19
2022-08-12T03:05:04.458Z,40.08
2022-08-12T03:05:23.817Z,40.07
2022-08-12T03:06:01.333Z,40.12
2022-08-12T03:06:17.376Z,39.92
2022-08-12T03:06:37.523Z,40.09
2022-08-12T03:07:01.114Z,40.02
2022-08-12T03:07:59.769Z,40.42
2022-08-12T03:08:21.282Z,41.89
2022-08-12T03:08:49.910Z,40.61
2022-08-12T03:09:06.964Z,40.44
2022-08-12T03:09:24.324Z,40.91
2022-08-12T03:10:12.149Z,40.64
2022-08-12T03:10:36.713Z,40.23
2022-08-12T03:10:52.917Z,40.13
2022-08-12T03:11:14.525Z,39.93
2022-08-12T03:11:42.322Z,40.05
2022-08-12T03:12:05.076Z,39.82
2022-08-12T03:12:20.373Z,40.50
2022-08-12T03:12:36.809Z,40.23
2022-08-12T03:13:04.029Z,40.45
2022-08-12T03:13:20.124Z,40.63
2022-08-12T03:13:38.913Z,40.60
2022-08-12T03:13:59.926Z,40.58
2022-08-12T03:14:17.395Z,40.68
2022-08-12T03:14:32.059Z,40.30
2022-08-12T03:14:44.580Z,40.06
2022-08-12T03:14:58.977Z,40.20
2022-08-12T03:15:18.006Z,40.35
2022-08-12T03:15:31.210Z,40.05
2022-08-12T03:15:44.391Z,40.00
2022-08-12T03:15:58.424Z,40.21
2022-08-12T03:16:11.124Z,40.88
2022-08-12T03:16:23.804Z,40.55
2022-08-12T03:16:36.758Z,40.85
2022-08-12T03:17:09.383Z,40.28
2022-08-12T03:17:34.290Z,40.59
2022-08-12T03:18:25.702Z,40.25
2022-08-12T03:18:45.563Z,40.96
2022-08-12T03:18:58.909Z,40.64
2022-08-12T03:19:11.175Z,40.61
2022-08-12T03:19:24.685Z,40.64
2022-08-12T03:20:09.765Z,40.82
2022-08-12T03:20:16.633Z,40.90
2022-08-12T03:20:28.814Z,40.92
2022-08-12T03:20:41.101Z,40.46
2022-08-12T03:20:53.690Z,40.19
2022-08-12T03:21:05.702Z,40.69
2022-08-12T03:21:52.713Z,40.33
2022-08-12T03:22:09.412Z,40.65
2022-08-12T03:22:23.417Z,41.06
2022-08-12T03:22:40.652Z,40.68
2022-08-12T03:22:53.015Z,40.90
2022-08-12T03:23:06.091Z,40.72
2022-08-12T03:23:30.272Z,40.54
2022-08-12T03:23:45.463Z,40.66
2022-08-12T03:24:00.266Z,40.79
2022-08-12T03:24:17.171Z,40.44
2022-08-12T03:24:30.265Z,40.38
2022-08-12T03:24:44.879Z,40.63
2022-08-12T03:24:58.955Z,40.82
2022-08-12T03:25:24.909Z,40.89
2022-08-12T03:25:40.060Z,41.03
2022-08-12T03:25:56.157Z,40.99
2022-08-12T03:26:08.674Z,41.04
2022-08-12T03:26:25.849Z,40.99
2022-08-12T03:26:37.998Z,41.62
2022-08-12T03:26:52.419Z,41.01
2022-08-12T03:27:08.734Z,41.06
2022-08-12T03:27:20.651Z,40.64
2022-08-12T03:27:32.598Z,40.53
2022-08-12T03:27:49.797Z,40.35
2022-08-12T03:28:03.808Z,40.53
2022-08-12T03:28:35.718Z,40.57
2022-08-12T03:28:54.198Z,40.63
2022-08-12T03:29:07.315Z,41.42
2022-08-12T03:29:27.479Z,41.02
2022-08-12T03:29:49.853Z,41.12
2022-08-12T03:30:02.708Z,41.11
2022-08-12T03:30:15.647Z,41.00
2022-08-12T03:30:31.614Z,40.84
2022-08-12T03:30:45.782Z,41.07
2022-08-12T03:31:02.137Z,41.06
2022-08-12T03:31:14.183Z,41.36
2022-08-12T03:31:35.083Z,40.93
2022-08-12T03:31:48.561Z,40.82
2022-08-12T03:32:03.232Z,40.71
2022-08-12T03:32:35.531Z,40.64
2022-08-12T03:32:49.675Z,40.51
2022-08-12T03:33:03.342Z,40.72
2022-08-12T03:33:16.377Z,40.91
2022-08-12T03:33:34.504Z,41.72
2022-08-12T03:34:02.072Z,41.01
2022-08-12T03:34:23.555Z,40.77
2022-08-12T03:34:37.287Z,40.68
2022-08-12T03:34:50.614Z,41.08
2022-08-12T03:35:07.163Z,40.83
2022-08-12T03:35:40.197Z,41.16
2022-08-12T03:35:55.394Z,40.87
2022-08-12T03:36:09.344Z,41.13
2022-08-12T03:36:21.752Z,41.49
2022-08-12T03:36:36.227Z,41.34
2022-08-12T03:36:49.284Z,41.23
2022-08-12T03:37:08.668Z,41.75
2022-08-12T03:37:20.767Z,41.01
2022-08-12T03:37:35.268Z,41.11
2022-08-12T03:37:49.727Z,41.33
2022-08-12T03:38:05.537Z,41.11
2022-08-12T03:38:26.923Z,41.36
2022-08-12T03:38:42.958Z,41.15
2022-08-12T03:39:15.302Z,41.11
2022-08-12T03:39:41.340Z,41.21
2022-08-12T03:39:53.805Z,40.94
2022-08-12T03:40:08.915Z,41.47
2022-08-12T03:40:39.346Z,41.18
2022-08-12T03:41:17.904Z,41.28
2022-08-12T03:41:36.708Z,40.51
2022-08-12T03:41:58.502Z,40.51
2022-08-12T03:42:51.852Z,41.23
2022-08-12T03:43:25.317Z,41.04
2022-08-12T03:44:10.176Z,41.01
2022-08-12T03:44:52.739Z,40.90
2022-08-12T03:45:52.258Z,41.21
2022-08-12T03:46:28.855Z,41.41
2022-08-12T03:47:03.813Z,41.24
2022-08-12T03:47:49.412Z,41.25
2022-08-12T03:48:31.517Z,40.98
2022-08-12T03:49:02.246Z,40.78
2022-08-12T03:49:33.077Z,41.21
2022-08-12T03:50:04.311Z,41.49
2022-08-12T03:50:36.124Z,40.75
2022-08-12T03:51:07.414Z,41.54
2022-08-12T03:51:38.298Z,41.50
2022-08-12T03:52:10.014Z,41.33
2022-08-12T03:52:40.306Z,41.73
2022-08-12T03:53:11.215Z,41.86
2022-08-12T03:53:46.705Z,42.03
2022-08-12T03:54:18.068Z,41.68
2022-08-12T03:54:48.544Z,41.66
2022-08-12T03:55:18.886Z,41.71
2022-08-12T03:55:53.755Z,41.45
2022-08-12T03:56:24.644Z,41.39
2022-08-12T03:56:55.076Z,41.53
2022-08-12T03:57:25.277Z,41.14
2022-08-12T03:57:56.238Z,41.62
2022-08-12T03:58:27.196Z,41.10
2022-08-12T03:58:59.783Z,41.27
2022-08-12T03:59:30.817Z,42.16
2022-08-12T04:00:01.405Z,41.84
2022-08-12T04:00:23.724Z,42.60
2022-08-12T04:00:37.539Z,41.53
2022-08-12T04:00:49.846Z,41.92
2022-08-12T04:01:01.940Z,41.75
2022-08-12T04:01:14.059Z,41.82
2022-08-12T04:01:26.909Z,42.12
2022-08-12T04:01:41.136Z,41.34
2022-08-12T04:01:57.857Z,42.04
2022-08-12T04:02:15.558Z,42.13
2022-08-12T04:02:28.322Z,41.89
2022-08-12T04:02:41.480Z,42.01
2022-08-12T04:03:01.402Z,41.99
2022-08-12T04:03:32.808Z,42.12
2022-08-12T04:03:54.046Z,41.72
2022-08-12T04:04:10.643Z,41.96
2022-08-12T04:04:36.396Z,42.28
2022-08-12T04:04:49.374Z,42.21
2022-08-12T04:05:02.493Z,42.04
2022-08-12T04:05:21.702Z,41.89
2022-08-12T04:05:55.901Z,42.01
2022-08-12T04:06:09.316Z,41.90
2022-08-12T04:06:35.936Z,41.40
2022-08-12T04:06:48.163Z,41.72
2022-08-12T04:07:08.841Z,42.12
2022-08-12T04:07:21.128Z,42.02
2022-08-12T04:07:33.806Z,41.70
2022-08-12T04:07:57.882Z,41.98
2022-08-12T04:08:11.763Z,41.48
2022-08-12T04:08:26.855Z,41.61
2022-08-12T04:08:39.204Z,41.99
2022-08-12T04:08:53.854Z,41.95
2022-08-12T04:09:15.863Z,41.99
2022-08-12T04:09:29.738Z,41.71
2022-08-12T04:09:43.660Z,41.78
2022-08-12T04:09:57.575Z,41.78
2022-08-12T04:10:09.612Z,41.56
2022-08-12T04:10:21.793Z,41.34
2022-08-12T04:10:52.482Z,41.61
2022-08-12T04:11:23.171Z,41.78
2022-08-12T04:11:57.924Z,41.52
2022-08-12T04:12:32.316Z,41.56
2022-08-12T04:13:03.016Z,41.40
2022-08-12T04:13:21.604Z,41.58
2022-08-12T04:13:33.534Z,41.79
2022-08-12T04:13:48.697Z,41.69
2022-08-12T04:14:11.759Z,41.99
2022-08-12T04:14:26.893Z,42.07
2022-08-12T04:14:40.354Z,42.19
2022-08-12T04:14:53.953Z,42.29
2022-08-12T04:15:07.748Z,41.98
2022-08-12T04:15:20.072Z,42.23
2022-08-12T04:15:33.362Z,42.07
2022-08-12T04:15:46.537Z,42.08
2022-08-12T04:16:02.091Z,42.04
2022-08-12T04:16:17.011Z,42.33
2022-08-12T04:16:29.069Z,42.01
2022-08-12T04:16:41.086Z,42.41
2022-08-12T04:16:53.429Z,42.32
2022-08-12T04:17:05.437Z,42.96
2022-08-12T04:17:19.061Z,42.39
2022-08-12T04:17:31.975Z,42.01
2022-08-12T04:18:07.689Z,41.95
2022-08-12T04:18:16.678Z,42.42
2022-08-12T04:18:29.367Z,43.02
2022-08-12T04:18:42.353Z,41.76
2022-08-12T04:18:54.470Z,41.99
2022-08-12T04:19:07.565Z,41.83
2022-08-12T04:19:21.048Z,41.95
2022-08-12T04:19:33.111Z,41.77
2022-08-12T04:19:48.250Z,41.88
2022-08-12T04:20:00.346Z,42.46
2022-08-12T04:20:13.394Z,42.28
2022-08-12T04:20:25.856Z,42.40
2022-08-12T04:20:42.259Z,42.08
2022-08-12T04:20:55.293Z,42.44
2022-08-12T04:21:10.572Z,42.41
2022-08-12T04:21:22.527Z,42.15
2022-08-12T04:21:36.113Z,41.83
2022-08-12T04:22:02.429Z,41.89
2022-08-12T04:22:16.346Z,42.14
2022-08-12T04:22:30.787Z,42.18
2022-08-12T04:22:43.683Z,42.48
2022-08-12T04:22:55.743Z,43.31
2022-08-12T04:23:10.355Z,42.59
2022-08-12T04:23:31.045Z,43.13
2022-08-12T04:23:48.178Z,42.32
2022-08-12T04:24:01.566Z,41.71
2022-08-12T04:24:13.506Z,42.37
2022-08-12T04:24:26.775Z,42.17
2022-08-12T04:24:40.846Z,41.92
2022-08-12T04:24:54.033Z,42.05
2022-08-12T04:25:06.282Z,42.33
2022-08-12T04:25:19.688Z,42.74
2022-08-12T04:25:33.112Z,42.69
2022-08-12T04:25:45.054Z,42.46
2022-08-12T04:25:56.986Z,42.56
2022-08-12T04:26:09.304Z,42.47
2022-08-12T04:26:21.316Z,42.53
2022-08-12T04:26:35.725Z,42.19
2022-08-12T04:26:47.859Z,41.77
2022-08-12T04:27:00.447Z,41.95
2022-08-12T04:27:12.529Z,41.99
2022-08-12T04:27:24.436Z,42.13
2022-08-12T04:27:36.478Z,42.41
2022-08-12T04:27:49.772Z,42.31
2022-08-12T04:28:13.004Z,42.06
2022-08-12T04:28:27.896Z,42.50
2022-08-12T04:28:39.955Z,43.15
2022-08-12T04:28:51.888Z,43.09
2022-08-12T04:29:04.093Z,42.68
2022-08-12T04:29:16.081Z,43.10
2022-08-12T04:30:21.378Z,43.05
2022-08-12T04:30:31.589Z,43.05